sensor_id;sensor_type;location;lat;lon;timestamp;P1;durP1;ratioP1;P2;durP2;ratioP2
3924;SDS011;1977;52.274;10.518;2024-01-30T00:01:52;14.93;;;12.77;;
3924;SDS011;1977;52.274;10.518;2024-01-30T00:04:19;13.33;;;11.40;;
3924;SDS011;1977;52.274;10.518;2024-01-30T00:06:47;14.07;;;11.73;;
3924;SDS011;1977;52.274;10.518;2024-01-30T00:09:14;14.40;;;11.67;;
3924;SDS011;1977;52.274;10.518;2024-01-30T00:11:41;17.00;;;12.97;;
3924;SDS011;1977;52.274;10.518;2024-01-30T00:14:07;12.30;;;11.10;;
3924;SDS011;1977;52.274;10.518;2024-01-30T00:16:34;13.70;;;11.77;;
3924;SDS011;1977;52.274;10.518;2024-01-30T00:19:01;13.43;;;11.33;;
3924;SDS011;1977;52.274;10.518;2024-01-30T00:21:28;14.20;;;12.27;;
3924;SDS011;1977;52.274;10.518;2024-01-30T00:23:56;13.03;;;11.67;;
3924;SDS011;1977;52.274;10.518;2024-01-30T00:26:23;11.70;;;10.50;;
3924;SDS011;1977;52.274;10.518;2024-01-30T00:28:50;16.20;;;12.70;;
3924;SDS011;1977;52.274;10.518;2024-01-30T00:31:17;12.77;;;11.00;;
3924;SDS011;1977;52.274;10.518;2024-01-30T00:33:43;14.67;;;10.67;;
3924;SDS011;1977;52.274;10.518;2024-01-30T00:36:10;15.50;;;10.40;;
3924;SDS011;1977;52.274;10.518;2024-01-30T00:38:37;12.30;;;11.07;;
3924;SDS011;1977;52.274;10.518;2024-01-30T00:41:05;12.37;;;9.80;;
3924;SDS011;1977;52.274;10.518;2024-01-30T00:43:32;14.20;;;11.20;;
3924;SDS011;1977;52.274;10.518;2024-01-30T00:45:59;12.80;;;11.00;;
3924;SDS011;1977;52.274;10.518;2024-01-30T00:48:26;17.17;;;11.50;;
3924;SDS011;1977;52.274;10.518;2024-01-30T00:50:52;14.30;;;11.40;;
3924;SDS011;1977;52.274;10.518;2024-01-30T00:53:19;11.50;;;10.40;;
3924;SDS011;1977;52.274;10.518;2024-01-30T00:55:46;15.47;;;11.27;;
3924;SDS011;1977;52.274;10.518;2024-01-30T00:58:14;14.13;;;12.23;;
3924;SDS011;1977;52.274;10.518;2024-01-30T01:00:41;14.30;;;12.20;;
3924;SDS011;1977;52.274;10.518;2024-01-30T01:03:08;15.27;;;11.60;;
3924;SDS011;1977;52.274;10.518;2024-01-30T01:05:34;12.57;;;10.40;;
3924;SDS011;1977;52.274;10.518;2024-01-30T01:08:01;14.13;;;10.90;;
3924;SDS011;1977;52.274;10.518;2024-01-30T01:10:28;15.50;;;11.60;;
3924;SDS011;1977;52.274;10.518;2024-01-30T01:12:54;15.53;;;11.07;;
3924;SDS011;1977;52.274;10.518;2024-01-30T01:15:23;13.03;;;11.63;;
3924;SDS011;1977;52.274;10.518;2024-01-30T01:17:49;14.50;;;12.90;;
3924;SDS011;1977;52.274;10.518;2024-01-30T01:20:16;12.40;;;10.90;;
3924;SDS011;1977;52.274;10.518;2024-01-30T01:22:43;14.60;;;11.70;;
3924;SDS011;1977;52.274;10.518;2024-01-30T01:25:09;14.17;;;11.33;;
3924;SDS011;1977;52.274;10.518;2024-01-30T01:27:36;14.67;;;11.50;;
3924;SDS011;1977;52.274;10.518;2024-01-30T01:30:07;15.60;;;11.73;;
3924;SDS011;1977;52.274;10.518;2024-01-30T01:32:36;15.20;;;11.80;;
3924;SDS011;1977;52.274;10.518;2024-01-30T01:35:03;14.50;;;11.97;;
3924;SDS011;1977;52.274;10.518;2024-01-30T01:37:31;13.77;;;11.70;;
3924;SDS011;1977;52.274;10.518;2024-01-30T01:39:58;14.10;;;12.60;;
3924;SDS011;1977;52.274;10.518;2024-01-30T01:42:24;16.90;;;11.57;;
3924;SDS011;1977;52.274;10.518;2024-01-30T01:44:51;13.60;;;12.20;;
3924;SDS011;1977;52.274;10.518;2024-01-30T01:47:18;13.60;;;11.87;;
3924;SDS011;1977;52.274;10.518;2024-01-30T01:49:46;15.30;;;12.37;;
3924;SDS011;1977;52.274;10.518;2024-01-30T01:52:13;15.63;;;12.83;;
3924;SDS011;1977;52.274;10.518;2024-01-30T01:54:40;14.80;;;12.30;;
3924;SDS011;1977;52.274;10.518;2024-01-30T01:57:07;15.40;;;13.13;;
3924;SDS011;1977;52.274;10.518;2024-01-30T01:59:34;15.97;;;12.73;;
3924;SDS011;1977;52.274;10.518;2024-01-30T02:02:01;13.67;;;11.60;;
3924;SDS011;1977;52.274;10.518;2024-01-30T02:04:29;17.23;;;13.33;;
3924;SDS011;1977;52.274;10.518;2024-01-30T02:06:57;15.20;;;11.63;;
3924;SDS011;1977;52.274;10.518;2024-01-30T02:09:24;20.60;;;12.10;;
3924;SDS011;1977;52.274;10.518;2024-01-30T02:11:51;16.70;;;13.40;;
3924;SDS011;1977;52.274;10.518;2024-01-30T02:14:18;16.10;;;12.40;;
3924;SDS011;1977;52.274;10.518;2024-01-30T02:16:44;14.07;;;11.73;;
3924;SDS011;1977;52.274;10.518;2024-01-30T02:19:11;15.40;;;13.10;;
3924;SDS011;1977;52.274;10.518;2024-01-30T02:21:39;15.73;;;12.40;;
3924;SDS011;1977;52.274;10.518;2024-01-30T02:24:06;13.77;;;12.07;;
3924;SDS011;1977;52.274;10.518;2024-01-30T02:26:33;13.17;;;11.77;;
3924;SDS011;1977;52.274;10.518;2024-01-30T02:29:00;16.67;;;12.60;;
3924;SDS011;1977;52.274;10.518;2024-01-30T02:31:26;17.60;;;12.40;;
3924;SDS011;1977;52.274;10.518;2024-01-30T02:33:53;14.43;;;12.10;;
3924;SDS011;1977;52.274;10.518;2024-01-30T02:36:20;16.13;;;13.97;;
3924;SDS011;1977;52.274;10.518;2024-01-30T02:38:48;14.60;;;12.70;;
3924;SDS011;1977;52.274;10.518;2024-01-30T02:41:15;16.13;;;12.27;;
3924;SDS011;1977;52.274;10.518;2024-01-30T02:43:41;15.80;;;11.87;;
3924;SDS011;1977;52.274;10.518;2024-01-30T02:46:08;14.40;;;12.47;;
3924;SDS011;1977;52.274;10.518;2024-01-30T02:48:35;16.57;;;12.43;;
3924;SDS011;1977;52.274;10.518;2024-01-30T02:51:04;14.17;;;12.57;;
3924;SDS011;1977;52.274;10.518;2024-01-30T02:53:30;19.63;;;11.53;;
3924;SDS011;1977;52.274;10.518;2024-01-30T02:55:58;15.30;;;12.03;;
3924;SDS011;1977;52.274;10.518;2024-01-30T02:58:25;15.90;;;12.10;;
3924;SDS011;1977;52.274;10.518;2024-01-30T03:00:52;16.23;;;11.97;;
3924;SDS011;1977;52.274;10.518;2024-01-30T03:03:19;18.40;;;11.40;;
3924;SDS011;1977;52.274;10.518;2024-01-30T03:05:45;13.07;;;11.10;;
3924;SDS011;1977;52.274;10.518;2024-01-30T03:08:12;14.23;;;12.70;;
3924;SDS011;1977;52.274;10.518;2024-01-30T03:10:39;12.60;;;11.30;;
3924;SDS011;1977;52.274;10.518;2024-01-30T03:13:07;14.70;;;12.50;;
3924;SDS011;1977;52.274;10.518;2024-01-30T03:15:33;17.83;;;12.53;;
3924;SDS011;1977;52.274;10.518;2024-01-30T03:18:00;12.80;;;10.87;;
3924;SDS011;1977;52.274;10.518;2024-01-30T03:20:28;15.33;;;11.37;;
3924;SDS011;1977;52.274;10.518;2024-01-30T03:22:55;15.70;;;12.10;;
3924;SDS011;1977;52.274;10.518;2024-01-30T03:25:22;18.13;;;12.70;;
3924;SDS011;1977;52.274;10.518;2024-01-30T03:27:49;14.33;;;11.87;;
3924;SDS011;1977;52.274;10.518;2024-01-30T03:30:17;12.77;;;11.13;;
3924;SDS011;1977;52.274;10.518;2024-01-30T03:32:44;11.90;;;10.70;;
3924;SDS011;1977;52.274;10.518;2024-01-30T03:35:11;12.00;;;10.80;;
3924;SDS011;1977;52.274;10.518;2024-01-30T03:37:37;17.97;;;12.20;;
3924;SDS011;1977;52.274;10.518;2024-01-30T03:40:04;14.37;;;11.90;;
3924;SDS011;1977;52.274;10.518;2024-01-30T03:42:32;13.57;;;11.80;;
3924;SDS011;1977;52.274;10.518;2024-01-30T03:44:59;11.63;;;10.47;;
3924;SDS011;1977;52.274;10.518;2024-01-30T03:47:27;14.20;;;11.83;;
3924;SDS011;1977;52.274;10.518;2024-01-30T03:49:59;14.13;;;11.83;;
3924;SDS011;1977;52.274;10.518;2024-01-30T03:52:26;14.07;;;11.93;;
3924;SDS011;1977;52.274;10.518;2024-01-30T03:54:52;13.67;;;10.90;;
3924;SDS011;1977;52.274;10.518;2024-01-30T03:57:19;13.50;;;11.30;;
3924;SDS011;1977;52.274;10.518;2024-01-30T03:59:46;15.33;;;11.20;;
3924;SDS011;1977;52.274;10.518;2024-01-30T04:02:13;16.70;;;11.93;;
3924;SDS011;1977;52.274;10.518;2024-01-30T04:04:41;12.40;;;10.23;;
3924;SDS011;1977;52.274;10.518;2024-01-30T04:07:07;14.10;;;11.77;;
3924;SDS011;1977;52.274;10.518;2024-01-30T04:09:34;16.33;;;9.63;;
3924;SDS011;1977;52.274;10.518;2024-01-30T04:12:01;12.67;;;10.00;;
3924;SDS011;1977;52.274;10.518;2024-01-30T04:14:28;14.63;;;9.70;;
3924;SDS011;1977;52.274;10.518;2024-01-30T04:16:54;10.90;;;9.63;;
3924;SDS011;1977;52.274;10.518;2024-01-30T04:19:21;12.00;;;10.70;;
3924;SDS011;1977;52.274;10.518;2024-01-30T04:21:49;13.00;;;11.60;;
3924;SDS011;1977;52.274;10.518;2024-01-30T04:24:16;12.83;;;11.37;;
3924;SDS011;1977;52.274;10.518;2024-01-30T04:26:43;11.50;;;10.17;;
3924;SDS011;1977;52.274;10.518;2024-01-30T04:29:10;12.27;;;10.90;;
3924;SDS011;1977;52.274;10.518;2024-01-30T04:31:37;12.43;;;10.37;;
3924;SDS011;1977;52.274;10.518;2024-01-30T04:34:03;12.20;;;11.00;;
3924;SDS011;1977;52.274;10.518;2024-01-30T04:36:30;12.27;;;10.63;;
3924;SDS011;1977;52.274;10.518;2024-01-30T04:38:58;12.53;;;11.13;;
3924;SDS011;1977;52.274;10.518;2024-01-30T04:41:25;15.47;;;10.60;;
3924;SDS011;1977;52.274;10.518;2024-01-30T04:43:56;14.30;;;10.30;;
3924;SDS011;1977;52.274;10.518;2024-01-30T04:46:23;11.33;;;10.13;;
3924;SDS011;1977;52.274;10.518;2024-01-30T04:48:49;12.93;;;10.20;;
3924;SDS011;1977;52.274;10.518;2024-01-30T04:51:16;11.63;;;10.20;;
3924;SDS011;1977;52.274;10.518;2024-01-30T04:53:43;11.67;;;9.60;;
3924;SDS011;1977;52.274;10.518;2024-01-30T04:56:11;13.57;;;11.30;;
3924;SDS011;1977;52.274;10.518;2024-01-30T04:58:38;13.20;;;11.60;;
3924;SDS011;1977;52.274;10.518;2024-01-30T05:01:03;11.93;;;10.70;;
3924;SDS011;1977;52.274;10.518;2024-01-30T05:03:32;12.73;;;11.00;;
3924;SDS011;1977;52.274;10.518;2024-01-30T05:05:59;12.30;;;11.00;;
3924;SDS011;1977;52.274;10.518;2024-01-30T05:08:26;12.00;;;10.07;;
3924;SDS011;1977;52.274;10.518;2024-01-30T05:10:53;12.93;;;10.90;;
3924;SDS011;1977;52.274;10.518;2024-01-30T05:13:21;13.03;;;10.77;;
3924;SDS011;1977;52.274;10.518;2024-01-30T05:15:47;12.57;;;10.83;;
3924;SDS011;1977;52.274;10.518;2024-01-30T05:18:14;16.83;;;11.53;;
3924;SDS011;1977;52.274;10.518;2024-01-30T05:20:41;12.13;;;10.83;;
3924;SDS011;1977;52.274;10.518;2024-01-30T05:23:08;12.83;;;11.20;;
3924;SDS011;1977;52.274;10.518;2024-01-30T05:25:34;11.50;;;10.23;;
3924;SDS011;1977;52.274;10.518;2024-01-30T05:28:01;13.60;;;11.57;;
3924;SDS011;1977;52.274;10.518;2024-01-30T05:30:29;14.53;;;11.40;;
3924;SDS011;1977;52.274;10.518;2024-01-30T05:32:56;14.50;;;11.33;;
3924;SDS011;1977;52.274;10.518;2024-01-30T05:35:23;13.37;;;11.20;;
3924;SDS011;1977;52.274;10.518;2024-01-30T05:37:50;12.10;;;10.07;;
3924;SDS011;1977;52.274;10.518;2024-01-30T05:40:17;16.87;;;11.80;;
3924;SDS011;1977;52.274;10.518;2024-01-30T05:42:43;15.47;;;12.77;;
3924;SDS011;1977;52.274;10.518;2024-01-30T05:45:10;13.87;;;12.17;;
3924;SDS011;1977;52.274;10.518;2024-01-30T05:47:38;12.40;;;10.67;;
3924;SDS011;1977;52.274;10.518;2024-01-30T05:50:05;13.73;;;11.77;;
3924;SDS011;1977;52.274;10.518;2024-01-30T05:52:33;14.43;;;10.80;;
3924;SDS011;1977;52.274;10.518;2024-01-30T05:55:00;15.37;;;10.70;;
3924;SDS011;1977;52.274;10.518;2024-01-30T05:57:27;15.53;;;11.17;;
3924;SDS011;1977;52.274;10.518;2024-01-30T05:59:54;12.83;;;10.47;;
3924;SDS011;1977;52.274;10.518;2024-01-30T06:02:20;15.30;;;11.67;;
3924;SDS011;1977;52.274;10.518;2024-01-30T06:04:48;13.13;;;10.53;;
3924;SDS011;1977;52.274;10.518;2024-01-30T06:07:15;15.70;;;11.93;;
3924;SDS011;1977;52.274;10.518;2024-01-30T06:09:42;13.80;;;11.10;;
3924;SDS011;1977;52.274;10.518;2024-01-30T06:12:09;14.23;;;11.90;;
3924;SDS011;1977;52.274;10.518;2024-01-30T06:14:36;15.70;;;12.17;;
3924;SDS011;1977;52.274;10.518;2024-01-30T06:17:03;15.30;;;11.73;;
3924;SDS011;1977;52.274;10.518;2024-01-30T06:19:30;14.57;;;10.83;;
3924;SDS011;1977;52.274;10.518;2024-01-30T06:21:58;13.27;;;11.70;;
3924;SDS011;1977;52.274;10.518;2024-01-30T06:24:25;13.23;;;11.83;;
3924;SDS011;1977;52.274;10.518;2024-01-30T06:26:52;18.20;;;11.87;;
3924;SDS011;1977;52.274;10.518;2024-01-30T06:29:19;14.30;;;11.70;;
3924;SDS011;1977;52.274;10.518;2024-01-30T06:31:46;14.43;;;11.20;;
3924;SDS011;1977;52.274;10.518;2024-01-30T06:34:13;13.50;;;11.17;;
3924;SDS011;1977;52.274;10.518;2024-01-30T06:36:39;17.97;;;13.30;;
3924;SDS011;1977;52.274;10.518;2024-01-30T06:39:07;17.80;;;12.87;;
3924;SDS011;1977;52.274;10.518;2024-01-30T06:41:34;15.33;;;12.10;;
3924;SDS011;1977;52.274;10.518;2024-01-30T06:44:01;15.80;;;13.20;;
3924;SDS011;1977;52.274;10.518;2024-01-30T06:46:31;15.17;;;12.30;;
3924;SDS011;1977;52.274;10.518;2024-01-30T06:48:58;50.23;;;15.07;;
3924;SDS011;1977;52.274;10.518;2024-01-30T06:51:24;16.57;;;11.73;;
3924;SDS011;1977;52.274;10.518;2024-01-30T06:53:51;14.70;;;11.77;;
3924;SDS011;1977;52.274;10.518;2024-01-30T06:56:19;17.50;;;12.33;;
3924;SDS011;1977;52.274;10.518;2024-01-30T06:58:46;14.57;;;12.77;;
3924;SDS011;1977;52.274;10.518;2024-01-30T07:01:13;13.93;;;12.27;;
3924;SDS011;1977;52.274;10.518;2024-01-30T07:03:40;15.90;;;12.43;;
3924;SDS011;1977;52.274;10.518;2024-01-30T07:06:08;15.03;;;12.87;;
3924;SDS011;1977;52.274;10.518;2024-01-30T07:08:35;18.93;;;12.90;;
3924;SDS011;1977;52.274;10.518;2024-01-30T07:11:03;14.67;;;12.07;;
3924;SDS011;1977;52.274;10.518;2024-01-30T07:13:32;14.47;;;11.30;;
3924;SDS011;1977;52.274;10.518;2024-01-30T07:15:58;15.70;;;12.53;;
3924;SDS011;1977;52.274;10.518;2024-01-30T07:18:25;13.97;;;12.30;;
3924;SDS011;1977;52.274;10.518;2024-01-30T07:20:52;17.60;;;12.13;;
3924;SDS011;1977;52.274;10.518;2024-01-30T07:23:19;18.53;;;12.60;;
3924;SDS011;1977;52.274;10.518;2024-01-30T07:25:46;15.17;;;12.47;;
3924;SDS011;1977;52.274;10.518;2024-01-30T07:28:13;15.70;;;12.47;;
3924;SDS011;1977;52.274;10.518;2024-01-30T07:30:43;14.83;;;12.00;;
3924;SDS011;1977;52.274;10.518;2024-01-30T07:33:09;16.50;;;12.50;;
3924;SDS011;1977;52.274;10.518;2024-01-30T07:35:36;16.43;;;12.57;;
3924;SDS011;1977;52.274;10.518;2024-01-30T07:38:03;15.60;;;10.77;;
3924;SDS011;1977;52.274;10.518;2024-01-30T07:40:30;16.27;;;12.57;;
3924;SDS011;1977;52.274;10.518;2024-01-30T07:42:58;20.63;;;13.47;;
3924;SDS011;1977;52.274;10.518;2024-01-30T07:45:25;16.33;;;12.00;;
3924;SDS011;1977;52.274;10.518;2024-01-30T07:47:54;16.40;;;11.97;;
3924;SDS011;1977;52.274;10.518;2024-01-30T07:50:20;16.13;;;12.77;;
3924;SDS011;1977;52.274;10.518;2024-01-30T07:52:47;16.87;;;12.33;;
3924;SDS011;1977;52.274;10.518;2024-01-30T07:55:16;18.57;;;13.37;;
3924;SDS011;1977;52.274;10.518;2024-01-30T08:03:55;19.00;;;12.63;;
3924;SDS011;1977;52.274;10.518;2024-01-30T08:06:21;17.97;;;12.07;;
3924;SDS011;1977;52.274;10.518;2024-01-30T08:08:48;19.43;;;13.13;;
3924;SDS011;1977;52.274;10.518;2024-01-30T08:11:18;17.67;;;12.80;;
3924;SDS011;1977;52.274;10.518;2024-01-30T08:13:50;19.13;;;12.37;;
3924;SDS011;1977;52.274;10.518;2024-01-30T08:16:17;16.17;;;12.70;;
3924;SDS011;1977;52.274;10.518;2024-01-30T08:18:44;16.80;;;12.67;;
3924;SDS011;1977;52.274;10.518;2024-01-30T08:21:12;16.10;;;13.13;;
3924;SDS011;1977;52.274;10.518;2024-01-30T08:23:38;14.10;;;11.53;;
3924;SDS011;1977;52.274;10.518;2024-01-30T08:26:05;14.70;;;12.57;;
3924;SDS011;1977;52.274;10.518;2024-01-30T08:28:32;16.20;;;12.50;;
3924;SDS011;1977;52.274;10.518;2024-01-30T08:30:58;15.10;;;12.63;;
3924;SDS011;1977;52.274;10.518;2024-01-30T08:33:25;17.87;;;13.37;;
3924;SDS011;1977;52.274;10.518;2024-01-30T08:35:52;14.63;;;12.50;;
3924;SDS011;1977;52.274;10.518;2024-01-30T08:38:20;18.60;;;12.73;;
3924;SDS011;1977;52.274;10.518;2024-01-30T08:40:47;14.73;;;13.07;;
3924;SDS011;1977;52.274;10.518;2024-01-30T08:43:13;20.73;;;14.47;;
3924;SDS011;1977;52.274;10.518;2024-01-30T08:45:40;14.27;;;12.30;;
3924;SDS011;1977;52.274;10.518;2024-01-30T08:48:08;14.83;;;12.83;;
3924;SDS011;1977;52.274;10.518;2024-01-30T08:50:34;18.50;;;13.37;;
3924;SDS011;1977;52.274;10.518;2024-01-30T08:53:01;24.07;;;13.47;;
3924;SDS011;1977;52.274;10.518;2024-01-30T08:55:30;19.70;;;13.60;;
3924;SDS011;1977;52.274;10.518;2024-01-30T08:57:56;16.60;;;12.70;;
3924;SDS011;1977;52.274;10.518;2024-01-30T09:00:24;15.03;;;12.67;;
3924;SDS011;1977;52.274;10.518;2024-01-30T09:02:51;15.70;;;12.50;;
3924;SDS011;1977;52.274;10.518;2024-01-30T09:05:18;17.10;;;13.23;;
3924;SDS011;1977;52.274;10.518;2024-01-30T09:07:45;13.80;;;11.57;;
3924;SDS011;1977;52.274;10.518;2024-01-30T09:10:12;13.80;;;12.40;;
3924;SDS011;1977;52.274;10.518;2024-01-30T09:12:40;16.83;;;12.10;;
3924;SDS011;1977;52.274;10.518;2024-01-30T09:15:07;13.60;;;12.20;;
3924;SDS011;1977;52.274;10.518;2024-01-30T09:17:34;15.00;;;12.50;;
3924;SDS011;1977;52.274;10.518;2024-01-30T09:20:01;15.70;;;12.70;;
3924;SDS011;1977;52.274;10.518;2024-01-30T09:22:28;15.87;;;13.03;;
3924;SDS011;1977;52.274;10.518;2024-01-30T09:24:55;16.90;;;11.33;;
3924;SDS011;1977;52.274;10.518;2024-01-30T09:27:21;14.40;;;12.10;;
3924;SDS011;1977;52.274;10.518;2024-01-30T09:29:49;13.63;;;12.23;;
3924;SDS011;1977;52.274;10.518;2024-01-30T09:32:16;15.90;;;12.13;;
3924;SDS011;1977;52.274;10.518;2024-01-30T09:34:43;15.77;;;12.00;;
3924;SDS011;1977;52.274;10.518;2024-01-30T09:37:10;13.43;;;12.03;;
3924;SDS011;1977;52.274;10.518;2024-01-30T09:39:40;19.20;;;11.67;;
3924;SDS011;1977;52.274;10.518;2024-01-30T09:42:09;13.60;;;12.07;;
3924;SDS011;1977;52.274;10.518;2024-01-30T09:44:43;15.00;;;12.10;;
3924;SDS011;1977;52.274;10.518;2024-01-30T09:47:14;13.90;;;10.67;;
3924;SDS011;1977;52.274;10.518;2024-01-30T09:49:42;16.53;;;12.20;;
3924;SDS011;1977;52.274;10.518;2024-01-30T09:52:09;16.37;;;11.20;;
3924;SDS011;1977;52.274;10.518;2024-01-30T09:54:37;15.53;;;11.60;;
3924;SDS011;1977;52.274;10.518;2024-01-30T09:57:04;15.27;;;10.80;;
3924;SDS011;1977;52.274;10.518;2024-01-30T09:59:32;13.60;;;11.30;;
3924;SDS011;1977;52.274;10.518;2024-01-30T10:01:59;13.17;;;11.63;;
3924;SDS011;1977;52.274;10.518;2024-01-30T10:04:27;13.07;;;11.67;;
3924;SDS011;1977;52.274;10.518;2024-01-30T10:06:54;13.50;;;11.80;;
3924;SDS011;1977;52.274;10.518;2024-01-30T10:09:20;15.57;;;12.60;;
3924;SDS011;1977;52.274;10.518;2024-01-30T10:11:48;16.37;;;13.90;;
3924;SDS011;1977;52.274;10.518;2024-01-30T10:14:17;13.97;;;12.33;;
3924;SDS011;1977;52.274;10.518;2024-01-30T10:16:45;18.70;;;13.30;;
3924;SDS011;1977;52.274;10.518;2024-01-30T10:19:12;13.77;;;12.23;;
3924;SDS011;1977;52.274;10.518;2024-01-30T10:21:40;15.73;;;12.57;;
3924;SDS011;1977;52.274;10.518;2024-01-30T10:24:07;15.40;;;12.73;;
3924;SDS011;1977;52.274;10.518;2024-01-30T10:26:33;16.67;;;12.70;;
3924;SDS011;1977;52.274;10.518;2024-01-30T10:29:00;16.30;;;12.70;;
3924;SDS011;1977;52.274;10.518;2024-01-30T10:31:27;12.63;;;11.27;;
3924;SDS011;1977;52.274;10.518;2024-01-30T10:33:54;14.33;;;11.93;;
3924;SDS011;1977;52.274;10.518;2024-01-30T10:36:21;15.23;;;11.50;;
3924;SDS011;1977;52.274;10.518;2024-01-30T10:38:55;13.80;;;11.70;;
3924;SDS011;1977;52.274;10.518;2024-01-30T10:41:26;12.50;;;10.57;;
3924;SDS011;1977;52.274;10.518;2024-01-30T10:43:55;13.23;;;9.43;;
3924;SDS011;1977;52.274;10.518;2024-01-30T10:46:31;11.60;;;9.83;;
3924;SDS011;1977;52.274;10.518;2024-01-30T10:48:59;11.33;;;10.30;;
3924;SDS011;1977;52.274;10.518;2024-01-30T10:51:27;12.77;;;10.37;;
3924;SDS011;1977;52.274;10.518;2024-01-30T10:53:56;14.57;;;11.30;;
3924;SDS011;1977;52.274;10.518;2024-01-30T10:56:23;15.20;;;11.23;;
3924;SDS011;1977;52.274;10.518;2024-01-30T10:58:50;12.20;;;10.27;;
3924;SDS011;1977;52.274;10.518;2024-01-30T11:01:18;11.87;;;10.17;;
3924;SDS011;1977;52.274;10.518;2024-01-30T11:03:47;12.23;;;10.50;;
3924;SDS011;1977;52.274;10.518;2024-01-30T11:06:15;18.10;;;10.77;;
3924;SDS011;1977;52.274;10.518;2024-01-30T11:08:43;12.70;;;11.10;;
3924;SDS011;1977;52.274;10.518;2024-01-30T11:11:11;10.47;;;9.40;;
3924;SDS011;1977;52.274;10.518;2024-01-30T11:13:38;10.60;;;8.97;;
3924;SDS011;1977;52.274;10.518;2024-01-30T11:16:06;9.93;;;8.27;;
3924;SDS011;1977;52.274;10.518;2024-01-30T11:18:35;9.70;;;8.60;;
3924;SDS011;1977;52.274;10.518;2024-01-30T11:21:04;10.00;;;8.97;;
3924;SDS011;1977;52.274;10.518;2024-01-30T11:23:33;8.60;;;7.80;;
3924;SDS011;1977;52.274;10.518;2024-01-30T11:26:00;10.60;;;8.40;;
3924;SDS011;1977;52.274;10.518;2024-01-30T11:28:33;8.90;;;7.97;;
3924;SDS011;1977;52.274;10.518;2024-01-30T11:31:03;8.90;;;8.00;;
3924;SDS011;1977;52.274;10.518;2024-01-30T11:33:30;10.27;;;8.33;;
3924;SDS011;1977;52.274;10.518;2024-01-30T11:35:58;8.87;;;7.90;;
3924;SDS011;1977;52.274;10.518;2024-01-30T11:38:26;11.43;;;8.00;;
3924;SDS011;1977;52.274;10.518;2024-01-30T11:40:54;11.93;;;8.27;;
3924;SDS011;1977;52.274;10.518;2024-01-30T11:43:20;12.97;;;8.73;;
3924;SDS011;1977;52.274;10.518;2024-01-30T11:45:49;9.27;;;8.37;;
3924;SDS011;1977;52.274;10.518;2024-01-30T11:48:16;9.27;;;8.27;;
3924;SDS011;1977;52.274;10.518;2024-01-30T11:50:43;10.17;;;8.60;;
3924;SDS011;1977;52.274;10.518;2024-01-30T11:53:10;9.63;;;7.90;;
3924;SDS011;1977;52.274;10.518;2024-01-30T11:55:37;8.80;;;7.47;;
3924;SDS011;1977;52.274;10.518;2024-01-30T11:58:04;11.30;;;8.50;;
3924;SDS011;1977;52.274;10.518;2024-01-30T12:00:31;11.80;;;8.83;;
3924;SDS011;1977;52.274;10.518;2024-01-30T12:02:59;11.60;;;8.57;;
3924;SDS011;1977;52.274;10.518;2024-01-30T12:05:27;9.40;;;8.53;;
3924;SDS011;1977;52.274;10.518;2024-01-30T12:07:54;12.50;;;8.33;;
3924;SDS011;1977;52.274;10.518;2024-01-30T12:10:23;11.17;;;8.40;;
3924;SDS011;1977;52.274;10.518;2024-01-30T12:12:50;11.43;;;7.70;;
3924;SDS011;1977;52.274;10.518;2024-01-30T12:15:18;9.00;;;8.17;;
3924;SDS011;1977;52.274;10.518;2024-01-30T12:17:47;9.27;;;8.37;;
3924;SDS011;1977;52.274;10.518;2024-01-30T12:20:15;15.20;;;9.40;;
3924;SDS011;1977;52.274;10.518;2024-01-30T12:22:45;9.40;;;8.40;;
3924;SDS011;1977;52.274;10.518;2024-01-30T12:25:14;9.10;;;8.10;;
3924;SDS011;1977;52.274;10.518;2024-01-30T12:27:42;10.13;;;9.00;;
3924;SDS011;1977;52.274;10.518;2024-01-30T12:30:10;9.93;;;8.20;;
3924;SDS011;1977;52.274;10.518;2024-01-30T12:32:39;8.53;;;7.73;;
3924;SDS011;1977;52.274;10.518;2024-01-30T12:35:06;9.17;;;8.27;;
3924;SDS011;1977;52.274;10.518;2024-01-30T12:37:35;9.07;;;8.27;;
3924;SDS011;1977;52.274;10.518;2024-01-30T12:40:02;13.30;;;8.20;;
3924;SDS011;1977;52.274;10.518;2024-01-30T12:42:31;9.07;;;8.27;;
3924;SDS011;1977;52.274;10.518;2024-01-30T12:44:58;8.53;;;7.73;;
3924;SDS011;1977;52.274;10.518;2024-01-30T12:47:24;9.00;;;8.10;;
3924;SDS011;1977;52.274;10.518;2024-01-30T12:49:51;8.67;;;7.83;;
3924;SDS011;1977;52.274;10.518;2024-01-30T12:52:19;8.07;;;7.27;;
3924;SDS011;1977;52.274;10.518;2024-01-30T12:54:48;13.53;;;8.37;;
3924;SDS011;1977;52.274;10.518;2024-01-30T12:57:14;9.37;;;8.40;;
3924;SDS011;1977;52.274;10.518;2024-01-30T12:59:42;8.70;;;7.30;;
3924;SDS011;1977;52.274;10.518;2024-01-30T13:02:09;9.30;;;8.23;;
3924;SDS011;1977;52.274;10.518;2024-01-30T13:04:36;8.70;;;7.80;;
3924;SDS011;1977;52.274;10.518;2024-01-30T13:07:03;13.07;;;9.07;;
3924;SDS011;1977;52.274;10.518;2024-01-30T13:09:30;8.97;;;8.07;;
3924;SDS011;1977;52.274;10.518;2024-01-30T13:11:58;9.17;;;8.27;;
3924;SDS011;1977;52.274;10.518;2024-01-30T13:14:26;9.07;;;7.70;;
3924;SDS011;1977;52.274;10.518;2024-01-30T13:16:52;10.80;;;8.53;;
3924;SDS011;1977;52.274;10.518;2024-01-30T13:19:19;8.23;;;7.43;;
3924;SDS011;1977;52.274;10.518;2024-01-30T13:21:46;9.23;;;8.10;;
3924;SDS011;1977;52.274;10.518;2024-01-30T13:24:13;9.13;;;8.23;;
3924;SDS011;1977;52.274;10.518;2024-01-30T13:26:40;9.20;;;7.87;;
3924;SDS011;1977;52.274;10.518;2024-01-30T13:29:10;10.30;;;7.73;;
3924;SDS011;1977;52.274;10.518;2024-01-30T13:31:37;10.33;;;7.30;;
3924;SDS011;1977;52.274;10.518;2024-01-30T13:34:04;9.10;;;8.00;;
3924;SDS011;1977;52.274;10.518;2024-01-30T13:36:32;9.77;;;8.83;;
3924;SDS011;1977;52.274;10.518;2024-01-30T13:38:59;8.70;;;7.80;;
3924;SDS011;1977;52.274;10.518;2024-01-30T13:41:25;9.73;;;8.77;;
3924;SDS011;1977;52.274;10.518;2024-01-30T13:43:52;8.70;;;7.90;;
3924;SDS011;1977;52.274;10.518;2024-01-30T13:46:20;14.53;;;7.87;;
3924;SDS011;1977;52.274;10.518;2024-01-30T13:48:47;8.53;;;7.70;;
3924;SDS011;1977;52.274;10.518;2024-01-30T13:51:14;10.80;;;8.30;;
3924;SDS011;1977;52.274;10.518;2024-01-30T13:53:42;8.87;;;7.80;;
3924;SDS011;1977;52.274;10.518;2024-01-30T13:56:08;9.50;;;8.60;;
3924;SDS011;1977;52.274;10.518;2024-01-30T13:58:35;9.30;;;8.30;;
3924;SDS011;1977;52.274;10.518;2024-01-30T14:01:02;12.60;;;8.63;;
3924;SDS011;1977;52.274;10.518;2024-01-30T14:03:31;8.80;;;7.90;;
3924;SDS011;1977;52.274;10.518;2024-01-30T14:05:58;10.73;;;9.03;;
3924;SDS011;1977;52.274;10.518;2024-01-30T14:08:25;10.93;;;9.13;;
3924;SDS011;1977;52.274;10.518;2024-01-30T14:10:53;10.60;;;9.50;;
3924;SDS011;1977;52.274;10.518;2024-01-30T14:13:19;8.77;;;8.00;;
3924;SDS011;1977;52.274;10.518;2024-01-30T14:15:47;9.10;;;7.87;;
3924;SDS011;1977;52.274;10.518;2024-01-30T14:18:14;8.60;;;7.80;;
3924;SDS011;1977;52.274;10.518;2024-01-30T14:20:42;9.03;;;8.10;;
3924;SDS011;1977;52.274;10.518;2024-01-30T14:23:09;9.87;;;8.87;;
3924;SDS011;1977;52.274;10.518;2024-01-30T14:25:36;10.60;;;8.70;;
3924;SDS011;1977;52.274;10.518;2024-01-30T14:28:03;15.40;;;8.60;;
3924;SDS011;1977;52.274;10.518;2024-01-30T14:30:30;9.93;;;8.77;;
3924;SDS011;1977;52.274;10.518;2024-01-30T14:32:57;9.20;;;8.30;;
3924;SDS011;1977;52.274;10.518;2024-01-30T14:35:23;10.13;;;9.00;;
3924;SDS011;1977;52.274;10.518;2024-01-30T14:37:51;11.00;;;9.90;;
3924;SDS011;1977;52.274;10.518;2024-01-30T14:40:18;9.63;;;8.63;;
3924;SDS011;1977;52.274;10.518;2024-01-30T14:42:46;11.80;;;10.53;;
3924;SDS011;1977;52.274;10.518;2024-01-30T14:45:13;11.40;;;9.60;;
3924;SDS011;1977;52.274;10.518;2024-01-30T14:47:40;9.90;;;8.90;;